Time;durP1;ratioP1;P1;durP2;ratioP2;P2;SDS_P1;SDS_P2;PMS_P1;PMS_P2;Temp;Humidity;BMP_temperature;BMP_pressure;BME280_temperature;BME280_humidity;BME280_pressure;Samples;Min_cycle;Max_cycle;Signal;HPM_P1;HPM_P2
2021/11/04 00:02:21;;;;;;;;;28.00;23.50;;;;;10.23;57.84;100152.81;4968077;28;45281;-60
2021/11/04 00:04:47;;;;;;;;;27.25;21.50;;;;;10.18;57.79;100144.19;4964102;28;45381;-60
2021/11/04 00:07:13;;;;;;;;;25.25;23.50;;;;;10.16;57.94;100136.34;4963991;28;45269;-60
2021/11/04 00:09:39;;;;;;;;;26.25;24.75;;;;;10.14;58.09;100140.75;4968425;27;45350;-60
2021/11/04 00:12:05;;;;;;;;;19.50;18.25;;;;;10.14;58.06;100139.88;4971973;28;47360;-61
2021/11/04 00:14:31;;;;;;;;;23.50;21.50;;;;;10.10;58.09;100139.09;4965591;28;45234;-60
2021/11/04 00:16:56;;;;;;;;;25.00;22.25;;;;;10.09;58.17;100140.84;4963777;28;45218;-60
2021/11/04 00:19:23;;;;;;;;;15.50;15.00;;;;;10.07;58.22;100133.91;4962382;28;45516;-60
2021/11/04 00:21:48;;;;;;;;;25.50;23.75;;;;;10.03;57.97;100135.72;4970029;28;46252;-60
2021/11/04 00:24:14;;;;;;;;;26.75;24.50;;;;;10.01;58.16;100140.16;4965287;28;45347;-60
2021/11/04 00:26:39;;;;;;;;;27.50;24.25;;;;;9.99;58.17;100138.47;4968540;28;45431;-60
2021/11/04 00:29:04;;;;;;;;;29.25;27.50;;;;;9.97;58.10;100140.25;4961216;28;45463;-60
2021/11/04 00:31:30;;;;;;;;;31.00;28.25;;;;;9.97;58.17;100146.34;4970056;28;46128;-60
2021/11/04 00:33:56;;;;;;;;;31.50;28.50;;;;;9.93;58.03;100140.31;4968109;28;45317;-62
2021/11/04 00:36:22;;;;;;;;;28.75;27.50;;;;;9.91;58.01;100142.13;4966747;28;45335;-60
2021/11/04 00:38:48;;;;;;;;;28.25;27.50;;;;;9.90;58.00;100135.13;4970859;28;45430;-60
2021/11/04 00:41:16;;;;;;;;;32.00;29.00;;;;;9.88;58.36;100147.41;4972616;28;45280;-60
2021/11/04 00:43:42;;;;;;;;;26.50;25.00;;;;;9.86;58.29;100138.72;4967933;28;46237;-60
2021/11/04 00:46:08;;;;;;;;;29.00;24.25;;;;;9.82;58.21;100138.81;4966687;28;45415;-60
2021/11/04 00:48:33;;;;;;;;;29.75;28.50;;;;;9.82;58.36;100147.53;4973022;28;45336;-60
2021/11/04 00:50:58;;;;;;;;;29.75;26.75;;;;;9.77;58.24;100136.28;4978010;28;46839;-60
2021/11/04 00:53:24;;;;;;;;;22.50;21.00;;;;;9.79;58.49;100147.63;4979574;28;45407;-59
2021/11/04 00:55:49;;;;;;;;;19.25;16.25;;;;;9.76;58.14;100135.41;4978625;28;45212;-64
2021/11/04 00:58:16;;;;;;;;;30.75;24.50;;;;;9.75;58.14;100141.56;4979154;28;46199;-60
2021/11/04 01:00:42;;;;;;;;;25.25;22.75;;;;;9.69;58.37;100139.06;4979040;28;45373;-60
2021/11/04 01:03:07;;;;;;;;;24.50;20.75;;;;;9.70;58.43;100147.81;4980560;28;45333;-60
2021/11/04 01:05:32;;;;;;;;;24.75;22.75;;;;;9.67;58.40;100140.88;4978123;28;45442;-59
2021/11/04 01:07:59;;;;;;;;;28.50;25.25;;;;;9.64;58.26;100148.78;4979209;28;45411;-60
2021/11/04 01:10:25;;;;;;;;;24.50;22.75;;;;;9.58;58.44;100138.41;4980917;28;46274;-60
2021/11/04 01:12:51;;;;;;;;;23.25;18.00;;;;;9.58;58.84;100156.78;4967292;28;45300;-60
2021/11/04 01:15:18;;;;;;;;;18.75;18.50;;;;;9.52;58.76;100144.66;4974270;28;45226;-60
2021/11/04 01:17:43;;;;;;;;;23.75;22.00;;;;;9.53;58.80;100143.72;4978953;28;45483;-60
2021/11/04 01:20:09;;;;;;;;;22.00;21.50;;;;;9.51;58.54;100142.91;4978818;28;46219;-60
2021/11/04 01:22:35;;;;;;;;;21.00;19.50;;;;;9.50;58.55;100146.44;4979067;28;45569;-60
2021/11/04 01:25:00;;;;;;;;;25.00;21.75;;;;;9.48;58.57;100145.59;4977482;28;45371;-60
2021/11/04 01:27:25;;;;;;;;;20.50;18.50;;;;;9.45;58.63;100140.41;4970412;28;45290;-60
2021/11/04 01:29:51;;;;;;;;;22.50;20.75;;;;;9.45;58.82;100145.66;4962154;28;46406;-60
2021/11/04 01:32:16;;;;;;;;;23.00;21.00;;;;;9.44;59.08;100147.41;4966591;28;45321;-60
2021/11/04 01:34:42;;;;;;;;;21.25;20.75;;;;;9.43;58.87;100142.19;4965280;28;45359;-60
2021/11/04 01:37:07;;;;;;;;;19.25;17.25;;;;;9.41;59.00;100142.22;4966018;28;45593;-60
2021/11/04 01:39:32;;;;;;;;;18.25;18.00;;;;;9.41;59.11;100152.72;4964867;28;46278;-59
2021/11/04 01:41:58;;;;;;;;;16.00;15.00;;;;;9.39;58.88;100159.72;4965928;28;45284;-60
2021/11/04 01:44:23;;;;;;;;;20.75;19.50;;;;;9.40;58.89;100163.25;4968244;28;45237;-60
2021/11/04 01:46:50;;;;;;;;;8.50;6.25;;;;;9.41;59.06;100172.84;4972862;28;45319;-60
2021/11/04 01:49:16;;;;;;;;;20.25;20.25;;;;;9.39;58.95;100174.63;4973832;28;46208;-60
2021/11/04 01:51:43;;;;;;;;;23.50;20.50;;;;;9.40;59.11;100169.34;4978492;28;45276;-60
2021/11/04 01:54:08;;;;;;;;;22.25;19.00;;;;;9.39;59.01;100169.38;4978235;27;46021;-60
2021/11/04 01:56:38;;;;;;;;;22.50;20.00;;;;;9.39;59.22;100169.38;4978872;28;45248;-60
2021/11/04 01:59:03;;;;;;;;;24.25;21.25;;;;;9.39;58.96;100167.59;4973366;28;46798;-60
2021/11/04 02:01:29;;;;;;;;;23.00;17.75;;;;;9.39;59.22;100166.75;4978289;28;45236;-60
2021/11/04 02:04:19;;;;;;;;;20.25;18.00;;;;;9.41;59.03;100172.84;4986341;28;45174;-60
2021/11/04 02:07:02;;;;;;;;;23.25;20.00;;;;;9.41;58.98;100167.59;4969202;28;45434;-61
2021/11/04 02:09:55;;;;;;;;;20.75;20.75;;;;;9.35;58.97;100152.81;4973293;28;46813;-61
2021/11/04 02:12:30;;;;;;;;;20.50;20.25;;;;;9.40;58.84;100166.72;4976563;28;45454;-60
2021/11/04 02:14:59;;;;;;;;;19.25;19.25;;;;;9.40;59.21;100152.75;4971435;28;45220;-60
2021/11/04 02:17:27;;;;;;;;;18.00;16.00;;;;;9.40;59.03;100155.38;4978201;28;45399;-60
2021/11/04 02:19:58;;;;;;;;;20.50;19.25;;;;;9.32;59.02;100139.78;4978071;28;45295;-60
2021/11/04 02:22:26;;;;;;;;;20.50;18.00;;;;;9.37;58.96;100147.53;4976957;28;45557;-60
2021/11/04 02:25:19;;;;;;;;;21.00;19.00;;;;;9.35;59.26;100152.81;4977781;28;45301;-61
2021/11/04 02:27:53;;;;;;;;;23.25;21.00;;;;;9.35;59.13;100160.69;4967993;27;45296;-60
2021/11/04 02:30:20;;;;;;;;;22.00;21.00;;;;;9.30;59.23;100153.81;4967245;28;46332;-60
2021/11/04 02:32:47;;;;;;;;;22.75;21.50;;;;;9.25;59.24;100169.63;4976821;28;46050;-61
2021/11/04 02:35:13;;;;;;;;;23.50;21.50;;;;;9.23;59.30;100169.66;4977927;28;45318;-61
2021/11/04 02:37:39;;;;;;;;;18.50;18.00;;;;;9.20;59.39;100174.09;4978168;28;45472;-60
2021/11/04 02:40:06;;;;;;;;;21.25;20.00;;;;;9.15;59.31;100170.69;4977516;28;45257;-60
2021/11/04 02:42:32;;;;;;;;;20.50;17.00;;;;;9.12;59.45;100171.59;4977965;28;45174;-61
2021/11/04 02:44:58;;;;;;;;;24.25;20.75;;;;;9.10;59.22;100184.72;4971150;28;45303;-61
2021/11/04 02:47:24;;;;;;;;;25.75;21.25;;;;;9.07;59.51;100178.69;4961911;28;45473;-60
2021/11/04 02:49:51;;;;;;;;;17.25;16.25;;;;;9.03;59.49;100177.88;4977890;28;46006;-60
2021/11/04 02:52:16;;;;;;;;;22.50;19.75;;;;;9.00;59.88;100180.53;4977840;28;45465;-60
2021/11/04 02:54:52;;;;;;;;;21.50;20.00;;;;;8.94;59.82;100175.38;4976305;28;45437;-61
2021/11/04 02:57:18;;;;;;;;;21.25;19.50;;;;;8.94;59.85;100184.13;4976445;28;45264;-61
2021/11/04 02:59:43;;;;;;;;;21.00;21.00;;;;;8.92;59.81;100185.03;4974758;28;46179;-60
2021/11/04 03:02:09;;;;;;;;;21.25;20.00;;;;;8.89;59.58;100191.19;4978092;28;45267;-60
2021/11/04 03:04:34;;;;;;;;;25.75;21.50;;;;;8.88;59.75;100197.31;4977967;28;45201;-61
2021/11/04 03:07:01;;;;;;;;;20.25;20.00;;;;;8.87;59.75;100192.97;4977729;28;45241;-61
2021/11/04 03:09:26;;;;;;;;;23.00;19.75;;;;;8.81;59.96;100190.44;4977160;28;46189;-61
2021/11/04 03:11:51;;;;;;;;;20.75;19.75;;;;;8.83;59.78;100201.78;4977406;28;45272;-61
2021/11/04 03:14:17;;;;;;;;;23.25;22.00;;;;;8.80;59.66;100193.94;4977814;28;45291;-61
2021/11/04 03:16:48;;;;;;;;;21.75;20.00;;;;;8.79;59.59;100189.59;4977527;28;45614;-61
2021/11/04 03:19:17;;;;;;;;;21.25;19.00;;;;;8.82;60.00;100200.03;4976660;28;46251;-61
2021/11/04 03:21:47;;;;;;;;;22.50;20.50;;;;;8.81;59.94;100206.16;4973052;28;45418;-61
2021/11/04 03:24:18;;;;;;;;;25.25;21.75;;;;;8.81;59.75;100198.31;4977183;28;45414;-61
2021/11/04 03:27:04;;;;;;;;;19.50;18.00;;;;;8.82;60.01;100204.41;4977358;28;45375;-61
2021/11/04 03:29:35;;;;;;;;;24.00;20.50;;;;;8.78;59.72;100188.75;4959875;28;46265;-61
2021/11/04 03:32:02;;;;;;;;;18.75;18.25;;;;;8.78;59.87;100191.34;4966950;28;45301;-61
2021/11/04 03:34:29;;;;;;;;;23.75;23.75;;;;;8.73;59.79;100185.31;4984974;28;45339;-61
2021/11/04 03:36:55;;;;;;;;;24.00;23.25;;;;;8.71;60.05;100197.56;4977368;28;45422;-61
2021/11/04 03:39:22;;;;;;;;;26.50;22.25;;;;;8.71;60.29;100208.03;4976774;28;45414;-61
2021/11/04 03:41:51;;;;;;;;;26.50;22.00;;;;;8.69;59.72;100211.59;4977313;28;45252;-61
2021/11/04 03:44:19;;;;;;;;;21.50;21.50;;;;;8.69;60.11;100214.19;4978207;28;45257;-61
2021/11/04 03:46:45;;;;;;;;;23.00;23.00;;;;;8.67;60.03;100213.38;4961643;28;45405;-61
2021/11/04 03:49:13;;;;;;;;;26.00;23.25;;;;;8.65;60.12;100213.38;4969677;28;46635;-61
2021/11/04 03:51:39;;;;;;;;;29.50;28.00;;;;;8.62;60.14;100216.06;4977265;28;45255;-61
2021/11/04 03:54:05;;;;;;;;;26.50;24.75;;;;;8.65;60.19;100226.47;4976669;28;45362;-61
2021/11/04 03:56:31;;;;;;;;;27.75;20.75;;;;;8.64;60.34;100219.53;4969037;28;45552;-61
2021/11/04 03:58:57;;;;;;;;;24.25;22.00;;;;;8.65;60.27;100217.75;4976825;28;46446;-61
2021/11/04 04:01:22;;;;;;;;;20.50;20.00;;;;;8.65;60.23;100229.09;4976684;28;45478;-61
2021/11/04 04:03:48;;;;;;;;;23.00;19.75;;;;;8.66;60.15;100224.75;4978566;28;45200;-61
2021/11/04 04:06:13;;;;;;;;;23.75;22.00;;;;;8.68;60.32;100229.06;4976858;28;45490;-61
2021/11/04 04:08:46;;;;;;;;;24.25;23.00;;;;;8.71;60.26;100221.16;4979141;28;46058;-61
2021/11/04 04:11:12;;;;;;;;;27.25;22.50;;;;;8.72;60.37;100225.50;4979751;28;45338;-60
2021/11/04 04:13:37;;;;;;;;;27.00;21.50;;;;;8.76;60.14;100227.19;4977265;28;45180;-61
2021/11/04 04:16:02;;;;;;;;;30.25;25.00;;;;;8.78;60.30;100224.56;4979844;28;45624;-61
2021/11/04 04:18:28;;;;;;;;;22.50;21.75;;;;;8.81;60.45;100218.41;4979695;28;46180;-61
2021/11/04 04:20:53;;;;;;;;;25.50;22.25;;;;;8.74;60.33;100213.25;4979781;28;45308;-61
2021/11/04 04:23:19;;;;;;;;;27.75;22.50;;;;;8.83;60.49;100232.34;4977092;28;45378;-61
2021/11/04 04:25:45;;;;;;;;;30.75;25.00;;;;;8.83;60.55;100238.47;4979251;28;45869;-61
2021/11/04 04:28:10;;;;;;;;;31.00;25.25;;;;;8.84;60.24;100231.44;4978164;28;47145;-61
2021/11/04 04:30:36;;;;;;;;;29.75;25.00;;;;;8.87;60.39;100236.66;4974562;28;45383;-61
2021/11/04 04:33:01;;;;;;;;;28.25;26.75;;;;;8.88;60.48;100235.75;4974080;28;45448;-61
2021/11/04 04:35:27;;;;;;;;;28.25;26.25;;;;;8.90;60.45;100241.84;4974968;28;45486;-61
2021/11/04 04:37:52;;;;;;;;;23.50;23.50;;;;;8.90;60.52;100236.59;4975296;28;45342;-61
2021/11/04 04:40:18;;;;;;;;;23.50;22.25;;;;;8.92;60.77;100240.06;4979044;28;45328;-61
2021/11/04 04:42:43;;;;;;;;;25.25;24.00;;;;;8.92;60.35;100245.31;4970299;28;45528;-61
2021/11/04 04:45:09;;;;;;;;;23.75;23.00;;;;;8.93;60.39;100247.03;4971761;28;46744;-61
2021/11/04 04:47:35;;;;;;;;;24.75;23.75;;;;;8.94;60.60;100248.75;4964979;28;45414;-61
2021/11/04 04:50:01;;;;;;;;;30.75;25.00;;;;;8.94;60.80;100248.75;4979444;28;45386;-61
2021/11/04 04:52:29;;;;;;;;;32.75;25.00;;;;;8.96;60.53;100264.47;4979701;28;45354;-61
2021/11/04 04:54:55;;;;;;;;;21.50;21.50;;;;;8.96;60.83;100261.84;4976981;28;45322;-61
2021/11/04 04:57:24;;;;;;;;;23.75;22.25;;;;;8.93;60.80;100261.00;4970433;28;46034;-61
2021/11/04 04:59:51;;;;;;;;;26.75;24.50;;;;;8.96;60.75;100265.34;4973036;28;45330;-61
2021/11/04 05:02:17;;;;;;;;;27.75;24.75;;;;;8.98;60.80;100260.06;4974228;28;45553;-60
2021/11/04 05:04:42;;;;;;;;;27.00;25.75;;;;;8.97;60.86;100259.22;4972653;28;45598;-61
2021/11/04 05:07:08;;;;;;;;;28.00;25.00;;;;;8.97;61.06;100261.84;4959789;28;46456;-61
2021/11/04 05:09:33;;;;;;;;;29.00;24.75;;;;;9.00;61.14;100259.16;4959478;28;45376;-61
2021/11/04 05:12:00;;;;;;;;;27.50;23.75;;;;;9.00;61.06;100256.53;4960106;28;45344;-61
2021/11/04 05:14:25;;;;;;;;;21.25;19.75;;;;;9.01;60.89;100260.88;4959530;28;45340;-61
2021/11/04 05:16:51;;;;;;;;;25.00;23.00;;;;;9.03;61.21;100260.84;4959757;28;46017;-61
2021/11/04 05:19:16;;;;;;;;;23.75;23.25;;;;;9.03;61.19;100261.75;4958498;28;45316;-61
2021/11/04 05:21:42;;;;;;;;;30.75;28.00;;;;;9.01;61.15;100253.03;4959848;28;45468;-61
2021/11/04 05:24:08;;;;;;;;;31.25;28.25;;;;;9.02;61.10;100249.53;4974372;28;45490;-61
2021/11/04 05:26:35;;;;;;;;;30.75;23.25;;;;;9.01;61.27;100253.03;4959599;28;46141;-61
2021/11/04 05:29:00;;;;;;;;;29.75;23.00;;;;;9.02;61.26;100254.75;4967345;28;45237;-61
2021/11/04 05:31:26;;;;;;;;;28.50;26.25;;;;;9.02;61.45;100256.50;4988165;28;45300;-61
2021/11/04 05:33:53;;;;;;;;;23.25;22.00;;;;;9.01;61.56;100260.03;4973679;28;45190;-61
2021/11/04 05:36:22;;;;;;;;;23.00;21.75;;;;;9.02;61.55;100270.50;4970304;28;47038;-60
2021/11/04 05:38:47;;;;;;;;;20.00;14.00;;;;;9.03;61.37;100268.72;4960865;28;45395;-61
2021/11/04 05:41:13;;;;;;;;;22.25;20.50;;;;;9.02;61.65;100275.72;4959622;28;45415;-61
2021/11/04 05:43:38;;;;;;;;;28.00;24.75;;;;;9.02;61.60;100275.72;4959340;28;45261;-61
2021/11/04 05:46:04;;;;;;;;;21.50;21.50;;;;;9.01;61.78;100270.50;4965972;28;45870;-61
2021/11/04 05:48:29;;;;;;;;;23.25;20.25;;;;;9.01;61.63;100278.38;4964013;28;45425;-60
2021/11/04 05:50:54;;;;;;;;;19.75;18.25;;;;;9.00;61.80;100280.13;4970330;28;45300;-61
2021/11/04 05:53:22;;;;;;;;;22.00;21.50;;;;;8.97;61.89;100277.56;4969934;28;45361;-61
2021/11/04 05:55:48;;;;;;;;;23.00;21.00;;;;;9.01;61.87;100281.84;5000091;28;46163;-61
2021/11/04 05:58:14;;;;;;;;;19.50;15.50;;;;;9.00;62.07;100280.13;4962642;28;45401;-60
2021/11/04 06:00:39;;;;;;;;;22.00;21.75;;;;;9.00;61.99;100277.50;4959267;28;45394;-61
2021/11/04 06:03:04;;;;;;;;;21.50;16.50;;;;;8.95;62.29;100276.69;4968662;28;45568;-60
2021/11/04 06:05:30;;;;;;;;;24.25;20.00;;;;;8.97;62.25;100279.28;4989126;28;46264;-60
2021/11/04 06:07:55;;;;;;;;;22.25;20.75;;;;;8.94;62.08;100277.59;4962734;28;45399;-60
2021/11/04 06:10:21;;;;;;;;;24.75;23.25;;;;;8.98;62.41;100287.16;4958959;28;45320;-60
2021/11/04 06:12:46;;;;;;;;;22.25;21.50;;;;;9.00;62.37;100285.34;4958778;28;45316;-60
2021/11/04 06:15:12;;;;;;;;;24.25;21.00;;;;;9.02;62.20;100299.31;4958798;28;45410;-60
2021/11/04 06:17:37;;;;;;;;;24.75;19.75;;;;;9.04;62.28;100289.69;4958889;28;45453;-60
2021/11/04 06:20:03;;;;;;;;;22.25;21.00;;;;;9.07;62.16;100305.34;4961256;28;45367;-60
2021/11/04 06:22:29;;;;;;;;;29.75;26.00;;;;;9.12;62.11;100307.91;4975482;28;45486;-61
2021/11/04 06:24:54;;;;;;;;;23.75;21.25;;;;;9.14;62.09;100316.59;4958927;28;45292;-60
2021/11/04 06:27:19;;;;;;;;;21.25;19.50;;;;;9.16;62.41;100309.59;4958624;28;45284;-60
2021/11/04 06:29:45;;;;;;;;;23.00;21.75;;;;;9.19;62.33;100309.53;4977789;28;45590;-60
2021/11/04 06:32:10;;;;;;;;;23.25;21.00;;;;;9.24;62.32;100312.09;5035284;28;45527;-60
2021/11/04 06:34:36;;;;;;;;;27.75;23.50;;;;;9.19;62.14;100303.44;4968548;28;46200;-60
2021/11/04 06:37:02;;;;;;;;;26.50;24.25;;;;;9.30;62.19;100321.63;4958561;28;45272;-60
2021/11/04 06:39:28;;;;;;;;;29.50;26.75;;;;;9.33;62.46;100317.19;4958843;28;45299;-60
2021/11/04 06:41:54;;;;;;;;;27.75;24.50;;;;;9.38;62.33;100320.63;4958554;28;45354;-60
2021/11/04 06:44:19;;;;;;;;;23.50;22.00;;;;;9.40;62.50;100318.81;4958539;28;46148;-60
2021/11/04 06:46:49;;;;;;;;;26.00;22.50;;;;;9.46;62.54;100324.84;4958117;28;45398;-60
2021/11/04 06:49:17;;;;;;;;;27.75;24.00;;;;;9.48;62.65;100328.34;4967177;28;45378;-60
2021/11/04 06:51:46;;;;;;;;;26.50;21.25;;;;;9.53;62.55;100331.75;4962632;28;45236;-60
2021/11/04 06:54:15;;;;;;;;;21.25;21.00;;;;;9.54;62.61;100331.72;4966427;28;45450;-60
2021/11/04 06:56:46;;;;;;;;;27.25;21.00;;;;;9.59;62.62;100329.88;4991401;27;45245;-60
2021/11/04 06:59:23;;;;;;;;;28.25;25.25;;;;;9.64;62.65;100336.81;4958350;28;45362;-61
2021/11/04 07:01:50;;;;;;;;;23.50;20.50;;;;;9.66;62.48;100341.16;4958352;28;45280;-61
2021/11/04 07:04:30;;;;;;;;;26.25;22.25;;;;;9.69;62.38;100341.09;4970486;28;45286;-60
2021/11/04 07:09:49;;;;;;;;;23.25;20.25;;;;;9.76;62.79;100350.59;4961759;28;45300;-61
2021/11/04 07:12:14;;;;;;;;;24.25;20.00;;;;;9.81;62.84;100357.50;4958264;28;45464;-63
2021/11/04 07:14:42;;;;;;;;;25.50;22.00;;;;;9.83;62.72;100359.22;4957830;28;46488;-62
2021/11/04 07:17:10;;;;;;;;;21.50;19.00;;;;;9.86;62.61;100366.16;4958303;28;45326;-63
2021/11/04 07:19:35;;;;;;;;;23.00;21.75;;;;;9.90;62.85;100362.63;4957955;28;45182;-63
2021/11/04 07:22:21;;;;;;;;;26.00;23.00;;;;;9.93;62.57;100367.81;4958060;28;45462;-62
2021/11/04 07:24:59;;;;;;;;;23.50;21.50;;;;;9.97;62.77;100368.63;4961899;28;47295;-62
2021/11/04 07:27:31;;;;;;;;;17.00;17.00;;;;;9.98;62.96;100375.59;4957757;28;45387;-61
2021/11/04 07:30:01;;;;;;;;;22.00;19.25;;;;;9.91;63.02;100367.84;4958232;28;45239;-63
2021/11/04 07:32:30;;;;;;;;;20.75;18.50;;;;;10.01;63.11;100379.06;4957951;28;45326;-61
2021/11/04 07:34:57;;;;;;;;;22.50;21.75;;;;;10.02;63.05;100387.78;4957735;28;45372;-62
2021/11/04 07:37:30;;;;;;;;;21.75;19.75;;;;;10.04;63.02;100384.22;4989914;28;45480;-60
2021/11/04 07:39:56;;;;;;;;;22.00;19.25;;;;;10.05;63.12;100393.84;4964212;28;45360;-63
2021/11/04 07:42:22;;;;;;;;;20.25;18.00;;;;;10.04;63.22;100397.34;4959500;28;45576;-62
2021/11/04 07:44:47;;;;;;;;;21.50;19.50;;;;;10.08;63.19;100406.06;4959346;28;46962;-64
2021/11/04 07:47:12;;;;;;;;;23.50;18.25;;;;;10.07;63.13;100407.81;4965167;28;45371;-62
2021/11/04 07:49:38;;;;;;;;;18.25;18.25;;;;;10.11;62.93;100413.88;4979307;28;45479;-62
2021/11/04 07:52:06;;;;;;;;;25.25;21.25;;;;;10.14;62.93;100420.81;4968385;28;45329;-62
2021/11/04 07:54:32;;;;;;;;;24.75;23.75;;;;;10.16;63.23;100419.03;4985358;28;47009;-63
2021/11/04 07:56:58;;;;;;;;;22.00;21.50;;;;;10.18;63.19;100420.75;4960341;28;45259;-62
2021/11/04 07:59:26;;;;;;;;;19.00;18.00;;;;;10.19;63.28;100419.84;4960656;28;45498;-63
2021/11/04 08:01:52;;;;;;;;;18.25;17.00;;;;;10.23;63.13;100418.91;4960714;28;45481;-62
2021/11/04 08:04:17;;;;;;;;;15.50;13.50;;;;;10.24;63.09;100423.25;4967571;28;46119;-62
2021/11/04 08:06:43;;;;;;;;;18.00;15.75;;;;;10.27;63.15;100432.84;4960565;28;45236;-62
2021/11/04 08:09:08;;;;;;;;;14.25;12.50;;;;;10.29;63.17;100419.69;4960593;28;45303;-62
2021/11/04 08:11:33;;;;;;;;;16.75;15.00;;;;;10.30;63.38;100424.03;4960479;28;45343;-62
2021/11/04 08:13:59;;;;;;;;;14.50;13.75;;;;;10.33;63.33;100437.16;4960585;28;45430;-62
2021/11/04 08:16:24;;;;;;;;;13.50;12.50;;;;;10.36;63.24;100432.75;4960561;28;45319;-62
2021/11/04 08:18:49;;;;;;;;;14.75;12.50;;;;;10.37;63.46;100437.06;4960867;28;45368;-62
2021/11/04 08:21:15;;;;;;;;;12.75;11.25;;;;;10.33;63.34;100426.63;4960344;28;45386;-63
2021/11/04 08:23:40;;;;;;;;;16.25;13.75;;;;;10.45;63.48;100446.56;4958863;28;46345;-62
2021/11/04 08:26:07;;;;;;;;;17.00;13.75;;;;;10.47;63.26;100450.06;4960369;28;45308;-63
2021/11/04 08:28:33;;;;;;;;;14.00;10.50;;;;;10.51;63.45;100451.72;4959306;28;45412;-63
2021/11/04 08:30:58;;;;;;;;;11.75;11.25;;;;;10.54;63.22;100454.28;4960230;28;45321;-62
2021/11/04 08:33:24;;;;;;;;;7.00;7.00;;;;;10.57;63.34;100456.88;4960366;28;45319;-63
2021/11/04 08:35:50;;;;;;;;;11.00;9.00;;;;;10.56;63.43;100452.50;4960144;28;45328;-61
2021/11/04 08:38:16;;;;;;;;;13.50;12.00;;;;;10.65;63.35;100473.34;4960868;28;45307;-63
2021/11/04 08:40:42;;;;;;;;;17.50;10.75;;;;;10.68;63.52;100467.19;4959846;28;45322;-61
2021/11/04 08:43:08;;;;;;;;;11.50;8.00;;;;;10.71;63.55;100467.97;4960088;28;45476;-61
2021/11/04 08:45:33;;;;;;;;;9.75;9.00;;;;;10.77;63.67;100468.75;4960076;28;45490;-61
2021/11/04 08:48:00;;;;;;;;;14.25;9.25;;;;;10.82;63.57;100470.41;4961709;28;45272;-62
2021/11/04 08:50:26;;;;;;;;;12.50;10.50;;;;;10.85;63.26;100467.69;4978682;28;45517;-63
2021/11/04 08:52:53;;;;;;;;;14.75;9.75;;;;;10.91;63.80;100471.97;4979342;28;45908;-62
2021/11/04 08:55:20;;;;;;;;;8.00;8.00;;;;;10.96;63.63;100472.75;4981852;28;45162;-63
2021/11/04 08:57:45;;;;;;;;;6.00;6.00;;;;;10.99;63.67;100467.44;4959962;28;45305;-62
2021/11/04 09:00:12;;;;;;;;;7.75;5.75;;;;;11.03;63.73;100478.75;4959908;28;45161;-62
2021/11/04 09:02:38;;;;;;;;;9.75;9.50;;;;;11.10;63.64;100485.63;4970506;28;47095;-63
2021/11/04 09:05:09;;;;;;;;;8.50;7.00;;;;;11.14;63.60;100487.28;4960219;28;45616;-62
2021/11/04 09:07:38;;;;;;;;;9.75;8.25;;;;;11.19;63.56;100485.44;4960035;28;45319;-62
2021/11/04 09:10:07;;;;;;;;;7.75;7.75;;;;;11.26;63.61;100486.19;4959620;28;45335;-62
2021/11/04 09:12:32;;;;;;;;;6.25;6.25;;;;;11.29;63.64;100488.72;4959551;28;46483;-62
2021/11/04 09:14:58;;;;;;;;;9.00;6.00;;;;;11.33;63.47;100493.06;4959454;28;45266;-62
2021/11/04 09:17:23;;;;;;;;;7.25;5.75;;;;;11.38;63.30;100487.66;4959768;28;45345;-63
2021/11/04 09:19:51;;;;;;;;;12.25;7.25;;;;;11.44;63.54;100497.22;4959851;28;45186;-63
2021/11/04 09:22:17;;;;;;;;;8.00;6.50;;;;;11.48;63.49;100502.38;4959649;28;46155;-63
2021/11/04 09:24:43;;;;;;;;;7.00;6.25;;;;;11.51;63.45;100507.56;4959321;28;45347;-63
2021/11/04 09:27:08;;;;;;;;;5.75;5.00;;;;;11.52;63.54;100511.94;4972033;28;45178;-63
2021/11/04 09:29:34;;;;;;;;;4.50;4.25;;;;;11.59;63.29;100512.66;4959661;28;45387;-63
2021/11/04 09:32:00;;;;;;;;;5.25;4.25;;;;;11.60;63.29;100501.22;4959612;28;45490;-63
2021/11/04 09:34:28;;;;;;;;;5.25;5.25;;;;;11.65;63.34;100504.63;4959464;28;45406;-62
2021/11/04 09:36:53;;;;;;;;;7.75;5.25;;;;;11.70;63.22;100513.28;4959590;28;45246;-63
2021/11/04 09:39:19;;;;;;;;;7.25;6.00;;;;;11.73;63.16;100511.50;4959397;28;45213;-63
2021/11/04 09:41:44;;;;;;;;;4.50;3.25;;;;;11.67;63.21;100497.56;4959337;28;45224;-62
2021/11/04 09:44:11;;;;;;;;;7.25;4.75;;;;;11.76;63.21;100514.03;4959431;28;45225;-63
2021/11/04 09:46:37;;;;;;;;;5.00;4.75;;;;;11.84;63.20;100510.34;4959488;28;45446;-62
2021/11/04 09:49:03;;;;;;;;;6.25;4.00;;;;;11.84;63.11;100517.38;4969217;28;45434;-62
2021/11/04 09:51:29;;;;;;;;;6.75;6.00;;;;;11.90;63.11;100517.25;4978522;28;46237;-63
2021/11/04 09:53:55;;;;;;;;;5.50;5.25;;;;;11.94;62.90;100516.25;4978434;28;45419;-63
2021/11/04 09:56:21;;;;;;;;;4.00;4.00;;;;;11.99;62.94;100526.72;4972835;28;45267;-63
2021/11/04 09:58:46;;;;;;;;;6.00;6.00;;;;;12.01;63.01;100525.78;4964496;28;45323;-63
2021/11/04 10:01:26;;;;;;;;;7.50;7.00;;;;;12.04;62.78;100524.84;4958946;28;46312;-63
2021/11/04 10:03:56;;;;;;;;;6.00;6.00;;;;;12.10;62.87;100529.97;4965376;28;45417;-63
2021/11/04 10:06:31;;;;;;;;;7.00;5.00;;;;;12.13;62.71;100534.28;4977448;28;45321;-63
2021/11/04 10:08:59;;;;;;;;;5.75;5.75;;;;;12.13;62.87;100539.56;4978488;28;45250;-64
2021/11/04 10:11:30;;;;;;;;;5.00;5.00;;;;;12.11;62.80;100539.59;4978501;28;46211;-63
2021/11/04 10:14:03;;;;;;;;;11.50;7.00;;;;;12.14;62.63;100536.88;4978246;28;45434;-64
2021/11/04 10:16:31;;;;;;;;;6.75;5.00;;;;;12.19;62.51;100545.53;4978651;28;45365;-64
2021/11/04 10:19:00;;;;;;;;;4.00;4.00;;;;;12.22;62.49;100544.59;4978461;28;45430;-64
2021/11/04 10:21:28;;;;;;;;;7.25;6.00;;;;;12.26;62.17;100543.63;4960788;28;46152;-66
2021/11/04 10:23:54;;;;;;;;;3.75;3.75;;;;;12.34;62.43;100554.84;4978169;28;45372;-63
2021/11/04 10:26:23;;;;;;;;;0.50;0.50;;;;;12.35;62.66;100553.94;4978633;28;45401;-64
2021/11/04 10:28:51;;;;;;;;;6.75;5.50;;;;;12.42;62.43;100545.91;4978279;28;45328;-63
2021/11/04 10:31:20;;;;;;;;;7.00;7.00;;;;;12.49;62.49;100558.88;4961137;28;46231;-63
2021/11/04 10:33:52;;;;;;;;;4.50;4.00;;;;;12.54;62.48;100561.41;4978059;28;45508;-63
2021/11/04 10:36:23;;;;;;;;;4.00;4.00;;;;;12.60;62.18;100563.00;4978318;28;45196;-63
2021/11/04 10:38:54;;;;;;;;;4.25;4.25;;;;;12.64;62.00;100554.09;4978083;28;45285;-63
2021/11/04 10:41:22;;;;;;;;;4.00;4.00;;;;;12.72;62.22;100559.22;4978226;28;45303;-63
2021/11/04 10:43:51;;;;;;;;;8.00;4.25;;;;;12.76;62.29;100563.47;4978103;28;45295;-63
2021/11/04 10:46:17;;;;;;;;;4.50;3.75;;;;;12.79;62.50;100556.38;4978329;28;45471;-63
2021/11/04 10:48:45;;;;;;;;;7.50;5.00;;;;;12.86;62.22;100561.47;4968061;28;45307;-63
2021/11/04 10:51:20;;;;;;;;;4.00;4.00;;;;;12.91;61.74;100563.06;4978281;28;46144;-63
2021/11/04 10:54:10;;;;;;;;;6.50;5.00;;;;;13.00;61.89;100557.56;4977797;28;45284;-63
2021/11/04 10:56:38;;;;;;;;;6.75;6.00;;;;;13.14;62.14;100567.75;4976884;28;45239;-63
2021/11/04 10:59:17;;;;;;;;;3.00;3.00;;;;;13.29;61.65;100561.13;4977985;28;45533;-63
2021/11/04 11:01:45;;;;;;;;;4.00;4.00;;;;;13.45;61.84;100564.25;4977951;28;46247;-63
2021/11/04 11:04:18;;;;;;;;;4.00;3.00;;;;;13.59;61.60;100568.28;4977890;28;45174;-63
2021/11/04 11:06:46;;;;;;;;;4.25;4.00;;;;;13.63;61.39;100560.22;4977992;28;45273;-63
2021/11/04 11:09:17;;;;;;;;;4.25;4.25;;;;;13.79;61.40;100568.53;4961074;28;45202;-64
2021/11/04 11:12:07;;;;;;;;;4.00;4.00;;;;;13.87;61.21;100573.56;4958690;28;45654;-63
2021/11/04 11:14:34;;;;;;;;;5.25;4.75;;;;;13.91;61.25;100569.94;4955152;28;45218;-63
2021/11/04 11:17:01;;;;;;;;;5.50;3.50;;;;;13.97;60.81;100571.53;4957078;28;45257;-63
2021/11/04 11:19:30;;;;;;;;;5.00;3.25;;;;;14.03;60.70;100581.03;4958410;28;45303;-64
2021/11/04 11:21:56;;;;;;;;;2.00;2.00;;;;;14.09;60.45;100572.94;4958088;28;45261;-64